Flight Track Log - Related Links

Times and Time Zones

All times are in EDT time to prevent confusion due to time zone crossing. See the N137TK flight status page for this flight to view local times or setup timezone preferences in your user account.

Time Position Orientation Groundspeed Altitude Reporting Facility
EDT Latitude Longitude Course Direction KTS MPH feet Rate Location/Type
Wed 08:42:04 PM 35.3481 -82.5211 180° South 186 214 5,900  Level Atlanta Center
Wed 08:43:04 PM 35.3000 -82.5194 178° South 194 223 7,800 1,750 Climbing Atlanta Center
Wed 08:44:04 PM 35.2542 -82.5203 181° South 181 208 9,400 1,650 Climbing Atlanta Center
Wed 08:45:04 PM 35.2019 -82.5189 179° South 181 208 11,100 1,600 Climbing Atlanta Center
Wed 08:46:00 PM 35.0213 -82.5333 180° South  Level FlightAware Approximate
Wed 08:46:04 PM 35.1475 -82.5172 179° South 181 208 12,600  Level Atlanta Center
Wed 08:47:00 PM 34.9526 -82.5333 180° South  Level FlightAware Approximate
Wed 08:47:04 PM 35.0956 -82.5183 181° South 186 214 14,300  Level Atlanta Center
Wed 08:48:04 PM 35.0433 -82.5192 181° South 186 214 15,700 1,400 Climbing Atlanta Center
Wed 08:49:04 PM 34.9931 -82.5175 178° South 191 220 17,100 1,200 Climbing Atlanta Center
Wed 08:50:04 PM 34.9472 -82.5183 181° South 191 220 18,100 1,150 Climbing Atlanta Center
Wed 08:51:04 PM 34.8950 -82.5167 179° South 191 220 19,400 1,250 Climbing Atlanta Center
Wed 08:52:04 PM 34.8431 -82.5178 181° South 191 220 20,600 1,200 Climbing Atlanta Center
Wed 08:53:04 PM 34.7950 -82.5186 181° South 186 214 21,800 1,150 Climbing Atlanta Center
Wed 08:54:04 PM 34.7447 -82.5169 178° South 180 207 22,900 1,100 Climbing Atlanta Center
Wed 08:55:04 PM 34.6967 -82.5128 176° South 180 207 24,000 1,000 Climbing Atlanta Center
Wed 08:56:04 PM 34.6467 -82.5161 183° South 180 207 24,900 500 Climbing Atlanta Center
Wed 08:57:04 PM 34.5947 -82.5172 181° South 180 207 25,000 50 Climbing Atlanta Center
Wed 08:58:04 PM 34.5319 -82.5158 179° South 205 236 25,000  Level Atlanta Center
Wed 08:59:04 PM 34.4611 -82.5147 179° South 231 266 25,000  Level Atlanta Center
Wed 09:00:04 PM 34.3922 -82.5158 181° South 247 284 25,000  Level Atlanta Center
Wed 09:01:04 PM 34.3211 -82.5172 181° South 257 296 25,000  Level Atlanta Center
Wed 09:02:04 PM 34.2481 -82.5158 179° South 257 296 25,000  Level Atlanta Center
Wed 09:03:04 PM 34.1731 -82.5172 181° South 257 296 25,000  Level Atlanta Center
Wed 09:04:04 PM 34.0958 -82.5136 178° South 262 302 25,000  Level Atlanta Center
Wed 09:05:04 PM 34.0206 -82.5150 181° South 268 308 25,000  Level Atlanta Center
Wed 09:06:04 PM 33.9517 -82.5136 179° South 262 302 25,000  Level Atlanta Center
Wed 09:07:04 PM 33.8786 -82.5125 179° South 262 302 25,000  Level Atlanta Center
Wed 09:08:04 PM 33.8056 -82.5139 181° South 262 302 25,000  Level Atlanta Center
Wed 09:09:04 PM 33.7325 -82.5150 181° South 257 296 25,000  Level Atlanta Center
Wed 09:10:04 PM 33.6678 -82.5139 179° South 257 296 25,000  Level Atlanta Center
Wed 09:11:04 PM 33.5947 -82.5125 179° South 264 304 25,000  Level Atlanta Center
Wed 09:12:04 PM 33.5239 -82.5139 181° South 264 304 25,000 200 Level Atlanta Center
Wed 09:13:04 PM 33.4550 -82.5125 179° South 259 298 25,400 450 Climbing Atlanta Center
Wed 09:14:04 PM 33.3819 -82.5164 183° South 253 291 25,900 300 Climbing Atlanta Center
Wed 09:15:04 PM 33.3153 -82.5150 179° South 253 291 26,000 50 Climbing Atlanta Center
Wed 09:16:04 PM 33.2461 -82.5136 179° South 253 291 26,000  Level Atlanta Center
Wed 09:17:04 PM 33.1753 -82.5125 179° South 253 291 26,000  Level Atlanta Center
Wed 09:18:04 PM 33.1064 -82.5111 179° South 253 291 26,000  Level Atlanta Center
Wed 09:19:04 PM 33.0353 -82.5125 181° South 253 291 26,000  Level Atlanta Center
Wed 09:20:04 PM 32.9625 -82.5136 181° South 253 291 26,000  Level Atlanta Center
Wed 09:21:04 PM 32.8914 -82.5125 179° South 253 291 26,000  Level Atlanta Center
Wed 09:22:40 PM 32.7797 -82.5097 179° South 252 290 26,000  Level Jacksonville Center
Wed 09:23:40 PM 32.7067 -82.5150 183° South 257 296 26,000  Level Jacksonville Center
Wed 09:24:40 PM 32.6336 -82.5103 177° South 257 296 26,000  Level Jacksonville Center
Wed 09:25:40 PM 32.5625 -82.5131 182° South 257 296 26,000  Level Jacksonville Center
Wed 09:26:40 PM 32.4917 -82.5108 178° South 257 296 26,000  Level Jacksonville Center
Wed 09:27:40 PM 32.4228 -82.5111 180° South 257 296 26,000  Level Jacksonville Center
Wed 09:28:40 PM 32.3475 -82.5114 180° South 257 296 26,000  Level Jacksonville Center
Wed 09:29:40 PM 32.2767 -82.5092 178° South 252 290 26,000  Level Jacksonville Center
Wed 09:30:40 PM 32.2036 -82.5094 180° South 252 290 26,000  Level Jacksonville Center
Wed 09:31:40 PM 32.1283 -82.5100 180° South 252 290 26,000  Level Jacksonville Center
Wed 09:32:40 PM 32.0594 -82.5103 180° South 252 290 26,000  Level Jacksonville Center
Wed 09:33:40 PM 31.9864 -82.5106 180° South 252 290 26,000  Level Jacksonville Center
Wed 09:34:40 PM 31.9133 -82.5108 180° South 252 290 26,000  Level Jacksonville Center
Wed 09:35:40 PM 31.8444 -82.4964 170° South 258 297 26,000  Level Jacksonville Center
Wed 09:36:40 PM 31.7714 -82.4794 169° South 258 297 26,000  Level Jacksonville Center
Wed 09:37:40 PM 31.7003 -82.4653 170° South 258 297 26,000  Level Jacksonville Center
Wed 09:38:40 PM 31.6272 -82.4486 169° South 258 297 26,000  Level Jacksonville Center
Wed 09:39:40 PM 31.5561 -82.4317 169° South 258 297 26,000  Level Jacksonville Center
Wed 09:40:40 PM 31.4869 -82.4150 168° South 258 297 26,000  Level Jacksonville Center
Wed 09:41:40 PM 31.4161 -82.3983 169° South 258 297 26,000  Level Jacksonville Center
Wed 09:42:40 PM 31.3408 -82.3842 171° South 258 297 26,000  Level Jacksonville Center
Wed 09:43:40 PM 31.2697 -82.3725 172° South 258 297 26,000  Level Jacksonville Center
Wed 09:44:40 PM 31.1967 -82.3558 169° South 258 297 26,000  Level Jacksonville Center
Wed 09:45:40 PM 31.1256 -82.3417 170° South 258 297 26,000  Level Jacksonville Center
Wed 09:46:40 PM 31.0544 -82.3228 167° South 258 297 26,000  Level Jacksonville Center
Wed 09:47:40 PM 30.9792 -82.3086 171° South 264 304 26,000  Level Jacksonville Center
Wed 09:48:40 PM 30.9061 -82.2922 169° South 264 304 26,000  Level Jacksonville Center
Wed 09:49:40 PM 30.8350 -82.2756 169° South 264 304 26,000  Level Jacksonville Center
Wed 09:50:40 PM 30.7597 -82.2617 171° South 270 311 26,000  Level Jacksonville Center
Wed 09:51:40 PM 30.6886 -82.2453 169° South 270 311 26,000  Level Jacksonville Center
Wed 09:52:40 PM 30.6156 -82.2289 169° South 270 311 26,000  Level Jacksonville Center
Wed 09:53:40 PM 30.5339 -82.2053 166° South 277 319 26,000  Level Jacksonville Center
Wed 09:54:40 PM 30.4608 -82.1889 169° South 277 319 26,000  Level Jacksonville Center
Wed 09:55:40 PM 30.3878 -82.1750 171° South 276 318 26,000  Level Jacksonville Center
Wed 09:56:40 PM 30.3125 -82.1561 168° South 276 318 26,000  Level Jacksonville Center
Wed 09:57:40 PM 30.2372 -82.1425 171° South 276 318 26,000  Level Jacksonville Center
Wed 09:58:40 PM 30.1639 -82.1261 169° South 276 318 26,000  Level Jacksonville Center
Wed 09:59:40 PM 30.0886 -82.1100 170° South 276 318 26,000  Level Jacksonville Center
Wed 10:00:40 PM 30.0136 -82.1011 174° South 276 318 26,000  Level Jacksonville Center
Wed 10:01:40 PM 29.9403 -82.0847 169° South 276 318 26,000  Level Jacksonville Center
Wed 10:02:40 PM 29.8650 -82.0686 169° South 276 318 26,000  Level Jacksonville Center
Wed 10:03:40 PM 29.7897 -82.0550 171° South 276 318 26,000  Level Jacksonville Center
Wed 10:04:40 PM 29.7231 -82.0389 168° South 276 318 26,000  Level Jacksonville Center
Wed 10:05:40 PM 29.6394 -82.0253 172° South 271 312 26,000  Level Jacksonville Center
Wed 10:06:40 PM 29.5661 -82.0114 171° South 271 312 26,000  Level Jacksonville Center
Wed 10:07:40 PM 29.4889 -81.9956 170° South 278 320 26,000  Level Jacksonville Center
Wed 10:09:40 PM 29.3444 -81.9642 169° South 275 316 26,000  Level Miami Center
Wed 10:10:40 PM 29.2697 -81.9511 171° South 275 316 26,000  Level Miami Center
Wed 10:11:40 PM 29.1953 -81.9358 170° South 275 316 26,000  Level Miami Center
Wed 10:12:40 PM 29.1208 -81.9206 170° South 275 316 26,000  Level Miami Center
Wed 10:13:40 PM 29.0419 -81.9050 170° South 275 316 26,000  Level Miami Center
Wed 10:14:40 PM 28.9653 -81.8922 172° South 275 316 26,000  Level Miami Center
Wed 10:15:40 PM 28.8889 -81.8767 170° South 280 322 26,000 -250 Level Miami Center
Wed 10:16:40 PM 28.8142 -81.8614 170° South 275 316 25,500 -500 Descending Miami Center
Wed 10:17:40 PM 28.7314 -81.8483 172° South 280 322 25,000 -250 Descending Miami Center
Wed 10:18:40 PM 28.6525 -81.8306 169° South 291 335 25,000  Level Miami Center
Wed 10:19:40 PM 28.5758 -81.8153 170° South 291 335 25,000  Level Miami Center
Wed 10:20:40 PM 28.4994 -81.7978 169° South 286 329 25,000  Level Miami Center
Wed 10:21:40 PM 28.4247 -81.7828 170° South 280 322 25,000  Level Miami Center
Wed 10:22:40 PM 28.3400 -81.7647 169° South 280 322 25,000 -50 Level Miami Center
Wed 10:23:40 PM 28.2717 -81.7500 169° South 280 322 24,900 -300 Descending Miami Center
Wed 10:24:40 PM 28.1950 -81.7325 169° South 280 322 24,400 -550 Descending Miami Center
Wed 10:25:40 PM 28.1164 -81.7150 169° South 280 322 23,800 -650 Descending Miami Center
Wed 10:26:40 PM 28.0356 -81.6975 169° South 285 328 23,100 -850 Descending Miami Center
Wed 10:27:40 PM 27.9567 -81.6825 170° South 295 339 22,100 -984 Descending Miami Center
Wed 10:28:42 PM 27.8842 -81.6653 168° South 289 333 21,100 -1,100 Descending Miami Center
Wed 10:29:40 PM 27.8056 -81.6478 169° South 271 312 19,900 -1,068 Descending Miami Center
Wed 10:30:40 PM 27.7475 -81.6383 172° South 271 312 19,000 -1,200 Descending Miami Center
Wed 10:31:40 PM 27.6500 -81.6181 170° South 290 334 17,500 -1,426 Descending Miami Center
Wed 10:32:42 PM 27.5692 -81.6006 169° South 295 339 16,100 -1,450 Descending Miami Center
Wed 10:33:40 PM 27.4967 -81.5858 170° South 288 331 14,600 -1,388 Descending Miami Center
Wed 10:34:43 PM 27.4283 -81.5714 169° South 274 315 13,300 -1,350 Descending Miami Center
Wed 10:35:40 PM 27.3578 -81.5567 170° South 268 308 11,900 -1,271 Descending Miami Center
Wed 10:36:41 PM 27.2894 -81.5422 169° South 262 302 10,800 -1,150 Descending Miami Center
Wed 10:37:40 PM 27.2208 -81.5278 169° South 257 296 9,600 -908 Descending Miami Center
Wed 10:38:40 PM 27.1631 -81.5139 168° South 243 280 9,000 -347 Descending Miami Center
Wed 10:39:41 PM 27.1047 -81.5044 172° South 230 265 8,900 -49 Descending Miami Center
Wed 10:40:42 PM 27.0425 -81.4950 172° South 220 253 8,900 49 Level Miami Center
Wed 10:41:43 PM 26.9900 -81.5044 189° South 215 247 9,000 50 Climbing Miami Center
Wed 10:42:42 PM 26.9228 -81.5206 192° South 226 260 9,000  Level Miami Center
Wed 10:43:40 PM 26.8614 -81.5389 195° South 231 266 9,000  Level Miami Center
Wed 10:44:43 PM 26.8025 -81.5528 192° South 231 266 9,000  Level Miami Center
Wed 10:46:00 PM 26.7174 -81.5821 180° South  Level Estimated
Wed 10:53:00 PM 26.3041 -81.4793 222° Southwest  Level FlightAware Approximate
Wed 10:54:00 PM 26.2667 -81.5423 270° West  Level FlightAware Approximate
Wed 10:55:00 PM 26.2297 -81.6061 236° Southwest  Level FlightAware Approximate
Wed 10:56:00 PM 26.1911 -81.6704 236° Southwest  Level FlightAware Approximate

Login

Don't have an account? Register now (free) for customized features, flight alerts, and more!